createdAt,value
2024-05-09T00:01:14.106Z,11.45
2024-05-09T00:03:47.347Z,11.43
2024-05-09T00:06:18.332Z,11.39
2024-05-09T00:08:49.255Z,11.35
2024-05-09T00:11:23.609Z,11.33
2024-05-09T00:13:54.752Z,11.29
2024-05-09T00:16:25.807Z,11.27
2024-05-09T00:18:56.840Z,11.24
2024-05-09T00:21:27.810Z,11.23
2024-05-09T00:24:01.073Z,11.20
2024-05-09T00:26:32.097Z,11.15
2024-05-09T00:29:03.139Z,11.13
2024-05-09T00:31:36.459Z,11.07
2024-05-09T00:34:07.538Z,11.02
2024-05-09T00:36:38.497Z,10.97
2024-05-09T00:39:09.478Z,10.93
2024-05-09T00:41:40.490Z,10.90
2024-05-09T00:44:11.546Z,10.87
2024-05-09T00:46:42.788Z,10.84
2024-05-09T00:49:15.212Z,10.80
2024-05-09T00:51:46.190Z,10.76
2024-05-09T00:54:19.816Z,10.73
2024-05-09T00:56:52.450Z,10.70
2024-05-09T00:59:23.659Z,10.68
2024-05-09T01:01:54.778Z,10.64
2024-05-09T01:04:28.458Z,10.61
2024-05-09T01:06:59.458Z,10.59
2024-05-09T01:09:30.487Z,10.57
2024-05-09T01:12:03.657Z,10.55
2024-05-09T01:14:37.240Z,10.53
2024-05-09T01:17:08.830Z,10.49
2024-05-09T01:19:42.262Z,10.45
2024-05-09T01:22:16.259Z,10.40
2024-05-09T01:24:49.624Z,10.34
2024-05-09T01:27:20.805Z,10.30
2024-05-09T01:29:51.799Z,10.26
2024-05-09T01:32:22.975Z,10.22
2024-05-09T01:34:54.140Z,10.20
2024-05-09T01:37:27.569Z,10.16
2024-05-09T01:40:01.875Z,10.14
2024-05-09T01:42:37.910Z,10.12
2024-05-09T01:45:12.265Z,10.11
2024-05-09T01:47:48.704Z,10.08
2024-05-09T01:50:28.985Z,10.04
2024-05-09T01:53:10.264Z,9.98
2024-05-09T01:55:42.183Z,9.95
2024-05-09T01:58:13.156Z,9.93
2024-05-09T02:00:46.412Z,9.89
2024-05-09T02:03:20.051Z,9.85
2024-05-09T02:05:51.596Z,9.81
2024-05-09T02:08:25.916Z,9.79
2024-05-09T02:10:56.918Z,9.76
2024-05-09T02:13:27.974Z,9.73
2024-05-09T02:16:03.977Z,9.72
2024-05-09T02:18:35.071Z,9.69
2024-05-09T02:21:06.946Z,9.67
2024-05-09T02:23:37.995Z,9.65
2024-05-09T02:26:09.143Z,9.63
2024-05-09T02:28:44.309Z,9.60
2024-05-09T02:31:16.274Z,9.55
2024-05-09T02:33:47.705Z,9.53
2024-05-09T02:36:20.141Z,9.49
2024-05-09T02:38:53.477Z,9.47
2024-05-09T02:41:27.036Z,9.44
2024-05-09T02:44:00.123Z,9.42
2024-05-09T02:46:35.384Z,9.40
2024-05-09T02:49:06.490Z,9.37
2024-05-09T02:51:37.528Z,9.35
2024-05-09T02:54:12.608Z,9.32
2024-05-09T02:56:46.053Z,9.31
2024-05-09T02:59:17.010Z,9.29
2024-05-09T03:01:53.929Z,9.26
2024-05-09T03:04:25.195Z,9.24
2024-05-09T03:06:58.417Z,9.23
2024-05-09T03:09:29.371Z,9.21
2024-05-09T03:12:00.413Z,9.20
2024-05-09T03:14:34.415Z,9.18
2024-05-09T03:17:08.233Z,9.16
2024-05-09T03:19:39.285Z,9.15
2024-05-09T03:22:12.422Z,9.11
2024-05-09T03:24:46.534Z,9.07
2024-05-09T03:27:19.978Z,9.04
2024-05-09T03:29:53.990Z,9.02
2024-05-09T03:32:25.025Z,8.98
2024-05-09T03:34:58.368Z,8.96
2024-05-09T03:37:29.330Z,8.94
2024-05-09T03:40:02.957Z,8.91
2024-05-09T03:42:33.996Z,8.89
2024-05-09T03:45:08.361Z,8.86
2024-05-09T03:47:39.488Z,8.84
2024-05-09T03:50:21.966Z,8.82
2024-05-09T03:52:56.908Z,8.78
2024-05-09T03:55:30.905Z,8.77
2024-05-09T03:58:01.901Z,8.74
2024-05-09T04:00:38.898Z,8.72
2024-05-09T04:03:13.854Z,8.69
2024-05-09T04:05:48.062Z,8.68
2024-05-09T04:08:22.010Z,8.68
2024-05-09T04:10:55.654Z,8.70
2024-05-09T04:13:28.944Z,8.70
2024-05-09T04:16:02.418Z,8.69
2024-05-09T04:18:33.421Z,8.66
2024-05-09T04:21:10.443Z,8.65
2024-05-09T04:23:44.301Z,8.65
2024-05-09T04:26:17.394Z,8.65
2024-05-09T04:28:50.788Z,8.65
2024-05-09T04:31:21.849Z,8.66
2024-05-09T04:33:55.526Z,8.68
2024-05-09T04:36:28.673Z,8.68
2024-05-09T04:39:02.656Z,8.69
2024-05-09T04:41:36.324Z,8.73
2024-05-09T04:44:07.288Z,8.79
2024-05-09T04:46:39.768Z,8.83
2024-05-09T04:49:10.744Z,8.87
2024-05-09T04:51:41.845Z,8.91
2024-05-09T04:54:26.118Z,9.00
2024-05-09T04:57:07.058Z,9.10
2024-05-09T04:59:38.084Z,9.17
2024-05-09T05:02:11.377Z,9.24
2024-05-09T05:04:42.573Z,9.32
2024-05-09T05:07:14.788Z,9.39
2024-05-09T05:09:46.766Z,9.45
2024-05-09T05:12:36.706Z,9.50
2024-05-09T05:15:07.883Z,9.58
2024-05-09T05:17:41.782Z,9.67
2024-05-09T05:20:24.347Z,9.77
2024-05-09T05:23:02.017Z,9.92
2024-05-09T05:25:33.104Z,10.02
2024-05-09T05:28:06.237Z,10.11
2024-05-09T05:30:40.467Z,10.21
2024-05-09T05:33:20.279Z,10.33
2024-05-09T05:35:51.524Z,10.49
2024-05-09T05:38:26.076Z,10.65
2024-05-09T05:41:00.995Z,10.82
2024-05-09T05:43:32.081Z,10.97
2024-05-09T05:46:06.041Z,11.10
2024-05-09T05:48:39.548Z,11.25
2024-05-09T05:51:10.749Z,11.38
2024-05-09T05:53:44.714Z,11.52
2024-05-09T05:56:15.805Z,11.65
2024-05-09T05:58:52.264Z,11.83
2024-05-09T06:01:23.273Z,11.96
2024-05-09T06:03:56.703Z,12.08
2024-05-09T06:06:27.891Z,12.23
2024-05-09T06:09:01.705Z,12.34
2024-05-09T06:11:35.186Z,12.48
2024-05-09T06:14:06.258Z,12.64
2024-05-09T06:16:39.955Z,12.73
2024-05-09T06:19:14.133Z,12.82
2024-05-09T06:21:45.274Z,12.95
2024-05-09T06:24:26.871Z,13.07
2024-05-09T06:27:01.222Z,13.19
2024-05-09T06:29:35.845Z,13.31
2024-05-09T06:32:09.328Z,13.43
2024-05-09T06:34:46.497Z,13.55
2024-05-09T06:37:20.546Z,13.67
2024-05-09T06:39:51.545Z,13.78
2024-05-09T06:42:22.595Z,13.87
2024-05-09T06:45:15.955Z,13.95
2024-05-09T06:47:49.918Z,14.06
2024-05-09T06:50:24.575Z,14.14
2024-05-09T06:53:03.739Z,14.23
2024-05-09T06:55:36.267Z,14.30
2024-05-09T06:58:11.191Z,14.40
2024-05-09T07:00:46.763Z,14.50
2024-05-09T07:03:19.191Z,14.59
2024-05-09T07:05:55.103Z,14.73
2024-05-09T07:08:31.078Z,14.85
2024-05-09T07:11:04.609Z,14.92
2024-05-09T07:13:38.416Z,14.99
2024-05-09T07:16:09.457Z,15.10
2024-05-09T07:18:40.930Z,15.21
2024-05-09T07:21:12.109Z,15.29
2024-05-09T07:23:45.393Z,15.39
2024-05-09T07:26:18.310Z,15.47
2024-05-09T07:28:49.368Z,15.56
2024-05-09T07:31:20.399Z,15.65
2024-05-09T07:33:51.520Z,15.76
2024-05-09T07:36:23.493Z,15.87
2024-05-09T07:38:54.412Z,15.96
2024-05-09T07:41:25.397Z,16.05
2024-05-09T07:43:56.472Z,16.19
2024-05-09T07:47:36.496Z,16.32
2024-05-09T07:51:31.617Z,16.43
2024-05-09T07:53:29.337Z,16.59
2024-05-09T07:55:04.800Z,16.74
2024-05-09T07:57:35.966Z,16.88
2024-05-09T08:00:08.327Z,17.00
2024-05-09T08:02:42.559Z,17.12
2024-05-09T08:05:13.667Z,17.19
2024-05-09T08:07:46.954Z,17.27
2024-05-09T08:10:22.178Z,17.35
2024-05-09T08:12:58.027Z,17.44
2024-05-09T08:15:29.795Z,17.54
2024-05-09T08:18:00.940Z,17.64
2024-05-09T08:20:35.216Z,17.72
2024-05-09T08:23:06.650Z,17.84
2024-05-09T08:25:39.785Z,17.97
2024-05-09T08:28:10.806Z,18.12
2024-05-09T08:30:41.947Z,18.28
2024-05-09T08:33:12.977Z,18.48
2024-05-09T08:35:44.035Z,18.72
2024-05-09T08:38:15.137Z,18.97
2024-05-09T08:40:49.747Z,19.14
2024-05-09T08:43:21.927Z,19.29
2024-05-09T08:45:53.015Z,19.50
2024-05-09T08:48:25.358Z,19.71
2024-05-09T08:50:59.287Z,19.82
2024-05-09T08:53:30.410Z,19.92
2024-05-09T08:56:03.773Z,20.03
2024-05-09T08:58:34.977Z,20.15
2024-05-09T09:01:09.380Z,20.31
2024-05-09T09:03:40.658Z,20.44
2024-05-09T09:06:15.120Z,20.53
2024-05-09T09:08:46.698Z,20.61
2024-05-09T09:11:17.682Z,20.76
2024-05-09T09:13:48.622Z,20.93
2024-05-09T09:16:19.786Z,21.16
2024-05-09T09:18:51.182Z,21.44
2024-05-09T09:21:22.208Z,21.67
2024-05-09T09:23:53.116Z,21.87
2024-05-09T09:26:24.752Z,22.09
2024-05-09T09:28:55.773Z,22.24
2024-05-09T09:31:26.756Z,22.36
2024-05-09T09:34:00.156Z,22.42
2024-05-09T09:36:33.008Z,22.52
2024-05-09T09:39:04.984Z,22.62
2024-05-09T09:41:39.234Z,22.71
2024-05-09T09:44:11.389Z,22.83
2024-05-09T09:46:43.001Z,22.87
2024-05-09T09:49:15.398Z,22.82
2024-05-09T09:51:48.220Z,22.76
2024-05-09T09:54:20.474Z,22.70
2024-05-09T09:56:53.562Z,22.62
2024-05-09T09:59:24.877Z,22.53
2024-05-09T10:01:56.042Z,22.46
2024-05-09T10:04:27.468Z,22.36
2024-05-09T10:07:05.344Z,22.29
2024-05-09T10:09:37.096Z,22.25
2024-05-09T10:12:18.125Z,22.24
2024-05-09T10:14:52.822Z,22.33
2024-05-09T10:17:23.862Z,22.53
2024-05-09T10:20:14.400Z,22.76
2024-05-09T10:22:52.098Z,22.82
2024-05-09T10:25:23.742Z,22.89
2024-05-09T10:27:57.678Z,22.94
2024-05-09T10:30:34.258Z,22.98
2024-05-09T10:33:12.196Z,23.02
2024-05-09T10:35:53.492Z,23.00
2024-05-09T10:38:24.599Z,22.98
2024-05-09T10:40:59.201Z,22.99
2024-05-09T10:43:30.497Z,23.01
2024-05-09T10:46:01.563Z,23.10
2024-05-09T10:48:33.010Z,23.16
2024-05-09T10:51:04.254Z,23.34
2024-05-09T10:53:42.764Z,23.52
2024-05-09T10:56:15.892Z,23.73
2024-05-09T10:58:48.118Z,23.94
2024-05-09T11:01:19.152Z,24.18
2024-05-09T11:03:51.096Z,24.40
2024-05-09T11:06:22.312Z,24.54
2024-05-09T11:08:53.940Z,24.54
2024-05-09T11:11:25.140Z,24.56
2024-05-09T11:13:56.089Z,24.63
2024-05-09T11:16:27.083Z,24.71
2024-05-09T11:18:59.529Z,24.82
2024-05-09T11:21:30.851Z,24.96
2024-05-09T11:24:01.789Z,25.01
2024-05-09T11:26:34.073Z,25.05
2024-05-09T11:29:04.979Z,25.08
2024-05-09T11:31:37.216Z,25.11
2024-05-09T11:34:08.260Z,25.12
2024-05-09T11:36:39.294Z,25.14
2024-05-09T11:39:10.562Z,25.08
2024-05-09T11:41:41.550Z,25.03
2024-05-09T11:44:13.144Z,24.78
2024-05-09T11:46:45.063Z,24.60
2024-05-09T11:49:16.103Z,24.50
2024-05-09T11:51:47.110Z,24.41
2024-05-09T11:54:18.379Z,24.33
2024-05-09T11:56:51.483Z,24.29
2024-05-09T11:59:22.423Z,24.27
2024-05-09T12:01:53.537Z,24.29
2024-05-09T12:04:25.701Z,24.36
2024-05-09T12:06:56.833Z,24.40
2024-05-09T12:09:27.850Z,24.43
2024-05-09T12:11:58.789Z,24.43
2024-05-09T12:14:29.790Z,24.47
2024-05-09T12:17:01.207Z,24.49
2024-05-09T12:19:32.371Z,24.54
2024-05-09T12:22:05.144Z,24.54
2024-05-09T12:24:36.195Z,24.56
2024-05-09T12:27:07.274Z,24.60
2024-05-09T12:29:38.967Z,24.61
2024-05-09T12:32:10.116Z,24.59
2024-05-09T12:34:41.139Z,24.65
2024-05-09T12:37:12.358Z,24.71
2024-05-09T12:39:43.366Z,24.78
2024-05-09T12:42:26.309Z,24.88
2024-05-09T12:44:59.014Z,24.93
2024-05-09T12:47:30.090Z,24.96
2024-05-09T12:50:01.269Z,25.06
2024-05-09T12:52:32.255Z,25.10
2024-05-09T12:55:03.233Z,25.20
2024-05-09T12:57:34.436Z,25.24
2024-05-09T13:00:05.863Z,25.30
2024-05-09T13:02:38.490Z,25.35
2024-05-09T13:05:10.435Z,25.32
2024-05-09T13:07:42.268Z,25.34
2024-05-09T13:10:19.753Z,25.50
2024-05-09T13:12:54.158Z,25.59
2024-05-09T13:15:25.128Z,25.59
2024-05-09T13:17:58.283Z,25.61
2024-05-09T13:20:34.088Z,25.63
2024-05-09T13:23:08.477Z,25.62
2024-05-09T13:25:39.955Z,25.53
2024-05-09T13:28:11.079Z,25.45
2024-05-09T13:30:42.588Z,25.41
2024-05-09T13:33:14.464Z,25.34
2024-05-09T13:35:49.637Z,25.28
2024-05-09T13:38:22.539Z,25.21
2024-05-09T13:40:53.599Z,25.09
2024-05-09T13:43:25.437Z,24.84
2024-05-09T13:45:57.949Z,24.65
2024-05-09T13:48:29.212Z,24.44
2024-05-09T13:51:00.337Z,24.24
2024-05-09T13:53:31.295Z,24.12
2024-05-09T13:56:02.300Z,23.97
2024-05-09T13:58:33.276Z,23.85
2024-05-09T14:01:04.406Z,23.74
2024-05-09T14:03:35.592Z,23.67
2024-05-09T14:06:09.446Z,23.64
2024-05-09T14:08:42.190Z,23.62
2024-05-09T14:11:13.184Z,23.59
2024-05-09T14:13:44.232Z,23.61
2024-05-09T14:16:15.691Z,23.59
2024-05-09T14:18:46.672Z,23.60
2024-05-09T14:21:17.665Z,23.64
2024-05-09T14:23:48.629Z,23.72
2024-05-09T14:26:19.895Z,23.79
2024-05-09T14:28:50.917Z,23.84
2024-05-09T14:31:22.961Z,23.86
2024-05-09T14:33:54.123Z,23.86
2024-05-09T14:36:25.234Z,23.87
2024-05-09T14:38:56.239Z,23.90
2024-05-09T14:41:27.157Z,23.93
2024-05-09T14:43:58.137Z,24.02
2024-05-09T14:46:29.313Z,24.15
2024-05-09T14:49:00.548Z,24.42
2024-05-09T14:51:31.613Z,24.76
2024-05-09T14:54:02.531Z,25.44
2024-05-09T14:56:33.710Z,26.86
2024-05-09T14:59:04.638Z,29.14
2024-05-09T15:01:35.636Z,29.75
2024-05-09T15:04:06.803Z,30.04
2024-05-09T15:06:40.974Z,30.06
2024-05-09T15:09:11.918Z,29.89
2024-05-09T15:11:43.908Z,29.70
2024-05-09T15:14:15.813Z,29.57
2024-05-09T15:16:48.512Z,29.74
2024-05-09T15:19:19.759Z,30.15
2024-05-09T15:21:50.849Z,30.39
2024-05-09T15:24:21.837Z,30.36
2024-05-09T15:26:52.769Z,30.27
2024-05-09T15:29:23.751Z,30.60
2024-05-09T15:31:54.684Z,32.80
2024-05-09T15:34:25.686Z,34.29
2024-05-09T15:36:56.764Z,34.29
2024-05-09T15:39:30.236Z,34.13
2024-05-09T15:42:01.287Z,33.93
2024-05-09T15:44:32.314Z,33.96
2024-05-09T15:47:03.234Z,34.17
2024-05-09T15:49:34.506Z,35.13
2024-05-09T15:52:05.597Z,35.87
2024-05-09T15:54:36.737Z,36.06
2024-05-09T15:57:08.409Z,35.69
2024-05-09T15:59:39.868Z,34.29
2024-05-09T16:02:11.551Z,33.65
2024-05-09T16:04:43.002Z,31.41
2024-05-09T16:07:14.270Z,29.83
2024-05-09T16:09:45.419Z,29.91
2024-05-09T16:12:16.362Z,29.29
2024-05-09T16:14:47.421Z,28.53
2024-05-09T16:17:18.708Z,28.22
2024-05-09T16:19:50.056Z,28.17
2024-05-09T16:22:21.075Z,28.56
2024-05-09T16:24:52.223Z,30.29
2024-05-09T16:27:23.176Z,32.55
2024-05-09T16:29:58.000Z,33.13
2024-05-09T16:32:28.972Z,32.90
2024-05-09T16:35:00.096Z,32.66
2024-05-09T16:37:31.125Z,32.63
2024-05-09T16:40:02.128Z,32.77
2024-05-09T16:42:33.376Z,33.14
2024-05-09T16:45:04.505Z,33.45
2024-05-09T16:47:35.774Z,33.68
2024-05-09T16:50:08.573Z,33.94
2024-05-09T16:52:39.726Z,34.30
2024-05-09T16:55:10.854Z,34.19
2024-05-09T16:57:42.324Z,32.54
2024-05-09T17:00:21.928Z,31.12
2024-05-09T17:03:01.138Z,30.24
2024-05-09T17:05:32.333Z,29.95
2024-05-09T17:08:03.442Z,30.13
2024-05-09T17:10:35.944Z,30.99
2024-05-09T17:13:08.288Z,32.17
2024-05-09T17:15:39.524Z,32.72
2024-05-09T17:18:11.096Z,32.92
2024-05-09T17:20:42.098Z,32.95
2024-05-09T17:23:14.087Z,33.04
2024-05-09T17:25:45.632Z,33.14
2024-05-09T17:28:16.808Z,33.23
2024-05-09T17:30:48.509Z,33.22
2024-05-09T17:33:19.712Z,33.17
2024-05-09T17:35:51.790Z,32.98
2024-05-09T17:38:23.678Z,32.45
2024-05-09T17:40:54.886Z,31.47
2024-05-09T17:43:26.027Z,30.07
2024-05-09T17:45:57.024Z,28.03
2024-05-09T17:48:28.197Z,26.22
2024-05-09T17:50:59.560Z,25.15
2024-05-09T17:53:30.469Z,24.51
2024-05-09T17:56:02.209Z,23.67
2024-05-09T17:58:33.223Z,23.29
2024-05-09T18:01:04.417Z,22.93
2024-05-09T18:03:35.621Z,22.51
2024-05-09T18:06:06.848Z,22.23
2024-05-09T18:08:37.889Z,21.82
2024-05-09T18:11:09.442Z,21.56
2024-05-09T18:13:40.421Z,21.32
2024-05-09T18:16:11.455Z,21.17
2024-05-09T18:18:42.819Z,21.00
2024-05-09T18:21:13.948Z,20.86
2024-05-09T18:23:44.907Z,20.74
2024-05-09T18:26:15.946Z,20.64
2024-05-09T18:28:47.306Z,20.51
2024-05-09T18:31:18.333Z,20.42
2024-05-09T18:33:49.456Z,20.33
2024-05-09T18:36:20.666Z,20.25
2024-05-09T18:38:51.643Z,20.20
2024-05-09T18:41:22.593Z,20.14
2024-05-09T18:43:56.040Z,20.11
2024-05-09T18:46:27.545Z,20.07
2024-05-09T18:48:58.615Z,20.02
2024-05-09T18:51:29.647Z,19.97
2024-05-09T18:54:00.582Z,19.93
2024-05-09T18:56:31.570Z,19.87
2024-05-09T18:59:02.480Z,19.82
2024-05-09T19:01:33.752Z,19.77
2024-05-09T19:04:05.072Z,19.73
2024-05-09T19:06:37.637Z,19.69
2024-05-09T19:09:08.598Z,19.66
2024-05-09T19:11:40.087Z,19.60
2024-05-09T19:14:11.358Z,19.54
2024-05-09T19:16:42.381Z,19.47
2024-05-09T19:19:14.946Z,19.40
2024-05-09T19:21:46.128Z,19.32
2024-05-09T19:24:17.222Z,19.25
2024-05-09T19:26:49.027Z,19.19
2024-05-09T19:29:19.970Z,19.12
2024-05-09T19:31:50.964Z,19.06
2024-05-09T19:34:24.407Z,18.98
2024-05-09T19:36:55.650Z,18.88
2024-05-09T19:39:26.681Z,18.80
2024-05-09T19:41:57.630Z,18.71
2024-05-09T19:44:28.562Z,18.65
2024-05-09T19:46:59.564Z,18.57
2024-05-09T19:49:31.953Z,18.49
2024-05-09T19:52:03.005Z,18.41
2024-05-09T19:54:34.052Z,18.32
2024-05-09T19:57:05.138Z,18.21
2024-05-09T19:59:36.065Z,18.08
2024-05-09T20:02:07.241Z,17.94
2024-05-09T20:04:45.587Z,17.86
2024-05-09T20:07:16.825Z,17.77
2024-05-09T20:09:47.956Z,17.67
2024-05-09T20:12:18.920Z,17.56
2024-05-09T20:14:49.914Z,17.48
2024-05-09T20:17:20.828Z,17.37
2024-05-09T20:19:51.812Z,17.26
2024-05-09T20:22:22.884Z,17.18
2024-05-09T20:24:53.894Z,17.08
2024-05-09T20:27:24.981Z,17.02
2024-05-09T20:29:55.965Z,16.94
2024-05-09T20:32:27.000Z,16.88
2024-05-09T20:34:59.045Z,16.80
2024-05-09T20:37:30.031Z,16.73
2024-05-09T20:40:01.066Z,16.65
2024-05-09T20:42:32.017Z,16.56
2024-05-09T20:45:03.408Z,16.50
2024-05-09T20:47:34.445Z,16.44
2024-05-09T20:50:11.354Z,16.37
2024-05-09T20:52:47.304Z,16.28
2024-05-09T20:55:18.338Z,16.20
2024-05-09T20:57:49.370Z,16.11
2024-05-09T21:00:26.167Z,16.03
2024-05-09T21:03:05.720Z,15.94
2024-05-09T21:05:39.184Z,15.86
2024-05-09T21:08:10.655Z,15.79
2024-05-09T21:10:41.872Z,15.73
2024-05-09T21:13:13.492Z,15.68
2024-05-09T21:15:44.710Z,15.61
2024-05-09T21:18:15.759Z,15.54
2024-05-09T21:20:46.724Z,15.46
2024-05-09T21:23:17.679Z,15.42
2024-05-09T21:25:48.768Z,15.35
2024-05-09T21:28:19.848Z,15.29
2024-05-09T21:30:50.954Z,15.24
2024-05-09T21:33:22.180Z,15.20
2024-05-09T21:35:53.388Z,15.16
2024-05-09T21:38:24.337Z,15.14
2024-05-09T21:40:58.095Z,15.12
2024-05-09T21:43:31.443Z,15.10
2024-05-09T21:46:02.706Z,15.06
2024-05-09T21:48:34.092Z,15.04
2024-05-09T21:51:05.916Z,15.02
2024-05-09T21:53:37.892Z,15.02
2024-05-09T21:56:10.566Z,15.02
2024-05-09T21:58:41.532Z,15.02
2024-05-09T22:01:12.601Z,15.04
2024-05-09T22:03:43.701Z,15.05
2024-05-09T22:06:14.699Z,15.05
2024-05-09T22:08:45.634Z,15.03
2024-05-09T22:11:16.580Z,15.02
2024-05-09T22:13:49.832Z,15.00
2024-05-09T22:16:20.855Z,14.96
2024-05-09T22:18:51.915Z,14.92
2024-05-09T22:21:22.938Z,14.89
2024-05-09T22:23:54.480Z,14.86
2024-05-09T22:26:25.483Z,14.83
2024-05-09T22:28:56.458Z,14.79
2024-05-09T22:31:27.583Z,14.77
2024-05-09T22:33:58.852Z,14.73
2024-05-09T22:36:30.129Z,14.69
2024-05-09T22:39:01.084Z,14.65
2024-05-09T22:41:32.006Z,14.62
2024-05-09T22:44:02.933Z,14.55
2024-05-09T22:46:34.058Z,14.51
2024-05-09T22:49:05.428Z,14.48
2024-05-09T22:51:36.466Z,14.44
2024-05-09T22:54:07.743Z,14.39
2024-05-09T22:56:39.831Z,14.34
2024-05-09T22:59:10.884Z,14.30
2024-05-09T23:01:41.936Z,14.26
2024-05-09T23:04:13.004Z,14.23
2024-05-09T23:06:44.246Z,14.19
2024-05-09T23:09:15.268Z,14.17
2024-05-09T23:11:48.674Z,14.16
2024-05-09T23:14:19.646Z,14.14
2024-05-09T23:16:50.631Z,14.12
2024-05-09T23:19:21.694Z,14.10
2024-05-09T23:21:52.663Z,14.09
2024-05-09T23:24:23.623Z,14.07
2024-05-09T23:26:54.602Z,14.02
2024-05-09T23:29:25.588Z,14.00
2024-05-09T23:31:56.523Z,13.97
2024-05-09T23:34:27.756Z,13.92
2024-05-09T23:36:58.869Z,13.87
2024-05-09T23:39:29.842Z,13.82
2024-05-09T23:42:00.766Z,13.78
2024-05-09T23:44:31.720Z,13.74
2024-05-09T23:47:02.670Z,13.70
2024-05-09T23:49:33.796Z,13.67
2024-05-09T23:52:04.876Z,13.62
2024-05-09T23:54:35.932Z,13.57
2024-05-09T23:57:06.980Z,13.50
2024-05-09T23:59:37.973Z,13.43
